< < Back
Terminal Aerodrome Forecast


Current Version              Previous Versions:   1  2  3  4  5  6  7  8  9  

Terminal Aerodrome Forecast

509
FTUS42 KFFC 301731
TAFATL
TAF
KATL 301731Z 3018/3124 35010KT P6SM SCT060
     FM310100 34006KT P6SM FEW150
     FM310800 03005KT P6SM FEW250
     FM311400 09006KT P6SM FEW040
     FM311600 10004KT P6SM SCT050
     FM311800 32006KT P6SM SCT060=

Latest METAR

602
SAUS70 KWBC 302000 RRH
MTRATL
METAR KATL 301952Z 32010KT 10SM SCT060 SCT250 33/13 A2996 RMK AO2 SLP135
T03330133


USA.gov is the U.S. government's official web portal to all federal, state and local government web resources and services.